ADDS METAR Data INFO
IDs: Format: Raw Decoded Include TAF

Data at: 2249 UTC 16 Jan 2018

PAKH 162156Z AUTO 34008KT 10SM BKN070 BKN085 04/M01 A2898 RMK AO2 SLP816 T00441006 $
PAKH 162007Z AUTO 35018G29KT 310V010 10SM FEW029 OVC045 03/01 A2901 RMK AO2 PK WND 01029/2006 RAE05 P0000 $
PAKH 161956Z AUTO 34016G20KT 300V360 10SM -RA SCT019 BKN029 OVC047 03/01 A2901 RMK AO2 PK WND 36030/1902 SLP825 P0003 T00280006 $
PAKH 161856Z AUTO 33020G27KT 8SM -RA BKN023 OVC030 03/00 A2901 RMK AO2 PK WND 36029/1828 UPB21E26 SLP824 P0000 T00280000 $
PAKH 161840Z AUTO 33017G24KT 10SM -RA BKN029 OVC036 03/00 A2901 RMK AO2 PK WND 36029/1828 UPB21E26 P0000 $
PAKH 161756Z AUTO 33020G28KT 10SM -RA OVC060 03/M01 A2900 RMK AO2 PK WND 36031/1713 RAE03B19E34B52 SLP823 P0000 60000 T00331006 10050 20022 56026 $
PAKH 161656Z AUTO 32018G30KT 10SM -RA FEW024 BKN060 OVC070 03/M02 A2903 RMK AO2 PK WND 36032/1610 RAB11 SLP831 P0000 T00331017 $
PAKH 161556Z AUTO 35022G30KT 10SM OVC070 04/M01 A2905 RMK AO2 PK WND 36038/1504 SLP839 T00391011 $
PAKH 161456Z AUTO 36022G34KT 310V020 10SM OVC085 05/M01 A2908 RMK AO2 PK WND 36040/1441 SLP849 T00501006 56040 $
PAKH 161356Z AUTO 36019G30KT 310V020 10SM OVC110 05/M01 A2911 RMK AO2 PK WND 01030/1355 SLP859 T00501011 $
PAKH 161256Z AUTO 10SM FEW120 03/M02 A2916 RMK AO2 SLP875 T00331017 $
PAKH 161156Z AUTO 10SM CLR 02/M02 A2920 RMK AO2 SLP889 70004 T00221017 10028 20006 58041 FZRANO $
PAKH 161056Z AUTO 10SM CLR 02/M02 A2925 RMK AO2 SLP905 T00221022 FZRANO $
PAKH 160956Z AUTO 10SM CLR 01/M02 A2928 RMK AO2 PRESFR SLP915 T00111017 FZRANO $
PAKH 160856Z AUTO 10SM CLR 02/M02 A2932 RMK AO2 SLP930 T00171017 400440011 58033 FZRANO $
PAKH 160756Z AUTO 10SM CLR 01/M02 A2936 RMK AO2 SLP943 T00111022 FZRANO $
PAKH 160656Z AUTO 10SM CLR 02/M02 A2939 RMK AO2 SLP952 T00171017 FZRANO $
PAKH 160556Z AUTO 10SM CLR 01/M01 A2942 RMK AO2 SLP962 60000 T00111011 10044 20011 56010 FZRANO $
PAKH 160456Z AUTO 10SM CLR 02/M01 A2942 RMK AO2 SLP965 T00171006 FZRANO $
PAKH 160356Z AUTO 02007KT 10SM CLR 02/00 A2943 RMK AO2 SLP968 T00170000 FZRANO $
PAKH 160256Z AUTO VRB04KT 10SM OVC036 02/01 A2945 RMK AO2 SLP973 60000 T00220006 58005 FZRANO $
PAKH 160156Z AUTO VRB05KT 10SM CLR 03/01 A2946 RMK AO2 RAE12 SLP976 P0000 T00280006 $
PAKH 160056Z AUTO 10SM -RA FEW018 OVC039 04/02 A2946 RMK AO2 RAB53 SLP977 P0000 T00440017 $
PAKH 152356Z AUTO 10SM OVC041 04/02 A2946 RMK AO2 SLP978 T00440022 10044 20039 58004 $
PAKH 152256Z AUTO 10SM SCT017 OVC043 04/02 A2948 RMK AO2 SLP983 T00440022 $
PAKH 152211Z AUTO 10SM BKN016 BKN021 OVC043 04/02 A2948 RMK AO2 $
PAKH 152156Z AUTO 10SM BKN014 OVC022 04/02 A2948 RMK AO2 SLP983 T00440017 $
PAKH 152056Z AUTO 10SM OVC010 04/02 A2947 RMK AO2 CIG 008V012 SLP982 T00440022 53008 $
PAKH 151956Z AUTO 10SM OVC010 04/02 A2946 RMK AO2 SLP978 T00390022 $
PAKH 151932Z AUTO 07004KT 10SM BKN010 OVC045 04/02 A2946 RMK AO2 $
PAKH 151903Z AUTO 08007KT 10SM FEW010 OVC043 04/03 A2945 RMK AO2 $
PAKH 151856Z AUTO 09005KT 3/4SM BR OVC043 04/03 A2945 RMK AO2 SLP973 T00390028 $
PAKH 151854Z AUTO 09006KT 1/2SM FG OVC043 04/03 A2945 RMK AO2 $
PAKH 151831Z AUTO 08007KT 10SM SCT013 OVC043 04/02 A2944 RMK AO2 $
PAKH 151756Z AUTO 08006KT 10SM BKN011 BKN017 OVC047 04/02 A2943 RMK AO2 RAE02 SLP968 P0000 60004 T00390022 10044 20022 53018 $
PAKH 151656Z AUTO 02004KT 10SM -RA OVC014 03/02 A2941 RMK AO2 RAE11B46UPB11E14 SLP961 P0001 T00330017 $
PAKH 151649Z AUTO 02004KT 9SM -RA OVC016 03/02 A2941 RMK AO2 RAE11B46UPB11E14 P0001 $
PAKH 151638Z AUTO 04005KT 10SM BKN014 BKN026 OVC039 03/02 A2941 RMK AO2 RAE11UPB11E14 P0001 $
PAKH 151556Z AUTO 00000KT 8SM -RA BKN024 OVC031 03/02 A2940 RMK AO2 SLP955 P0001 T00330017 $
PAKH 151456Z AUTO 14006KT 8SM -RA FEW015 BKN020 OVC026 03/02 A2938 RMK AO2 RAB50 SLP950 P0001 60002 T00330022 53018 $
PAKH 151441Z AUTO 06003KT 10SM SCT020 BKN026 OVC034 03/02 A2937 RMK AO2 $
PAKH 151356Z AUTO 00000KT 10SM FEW020 BKN034 OVC046 03/02 A2936 RMK AO2 SLP942 T00330017 $
PAKH 151256Z AUTO 36003KT 10SM FEW015 SCT021 BKN031 03/02 A2934 RMK AO2 RAB13E56 SLP938 P0001 T00330017 $
PAKH 151237Z AUTO 21005KT 7SM -RA SCT017 BKN025 OVC033 04/02 A2934 RMK AO2 RAB13 P0001 $
PAKH 151156Z AUTO 14005KT 10SM FEW016 BKN037 OVC045 04/03 A2933 RMK AO2 SLP932 60006 70009 T00390028 10044 20033 53015 $
PAKH 151131Z AUTO 15006KT 10SM BKN021 OVC038 04/03 A2932 RMK AO2 $
PAKH 151056Z AUTO 14007KT 10SM OVC036 04/03 A2931 RMK AO2 SLP927 T00440033 $